• pl
  • eng

Awiacja
TAF FT 01:00 01.01.1970

TAF EPBY 240530Z 2406/2506 29008KT CAVOK
BECMG 2419/2421 23005KT=

TAF EPBY 241130Z 2412/2512 29008KT CAVOK
BECMG 2419/2421 23005KT=

TAF EPGD 240530Z 2406/2506 30012KT CAVOK
BECMG 2418/2420 24008KT=

TAF EPGD 241130Z 2412/2512 27010KT 9999 SCT030=

TAF EPKK 240830Z 2409/2509 33010KT 9999 BKN020
BECMG 2409/2411 VRB02KT
BECMG 2418/2421 4000 BR BKN013 OVC030
TEMPO 2421/2509 2500 RA BR BKN007 OVC013=

TAF EPKK 241130Z 2412/2512 VRB02KT CAVOK
BECMG 2419/2422 4000 BR BKN013 OVC030
TEMPO 2422/2512 2500 RA BR BKN007 OVC013=

TAF EPKT 240530Z 2406/2506 34006KT 9999 OVC008
BECMG 2406/2409 BKN020
BECMG 2418/2421 4000 BR BKN013 OVC020
PROB40 TEMPO 2421/2506 2000 BR BKN008 OVC014=

TAF EPKT 241130Z 2412/2512 VRB02KT CAVOK
BECMG 2419/2422 4000 BR BKN013 OVC030
TEMPO 2422/2512 2500 RA BR BKN007 OVC013=

TAF EPLL 240530Z 2406/2506 30008KT CAVOK
PROB40 TEMPO 2406/2407 2800 BR BKN003 OVC005=

TAF EPLL 241130Z 2412/2512 29010KT CAVOK
BECMG 2416/2418 VRB02KT
TEMPO 2509/2512 4500 SHRA BKN014CB=

TAF EPMO 240530Z 2406/2506 30010KT CAVOK
BECMG 2416/2419 VRB02KT=

TAF EPMO 241130Z 2412/2512 29010KT CAVOK
BECMG 2416/2418 VRB02KT
TEMPO 2510/2512 4500 SHRA BKN014CB=

TAF AMD EPPO 240540Z 2406/2506 29003KT 0300 FG NSC
BECMG 2406/2409 CAVOK=

TAF EPPO 241130Z 2412/2512 32004KT CAVOK
BECMG 2505/2507 24014KT BKN014
TEMPO 2507/2512 4000 RA BR BKN009=

TAF EPRZ 240530Z 2406/2506 28007KT 7000 OVC030
BECMG 2406/2408 34010KT
TEMPO 2406/2409 BKN009 OVC018
BECMG 2414/2417 VRB02KT
BECMG 2421/2424 4000 BR BKN013 OVC030
TEMPO 2500/2506 2500 BR BKN007 OVC014=

TAF EPRZ 241130Z 2412/2512 29010KT CAVOK
BECMG 2420/2423 4000 BR BKN013 OVC030
TEMPO 2500/2512 2500 RA BR BKN007 OVC013=

TAF EPSC 240530Z 2406/2506 VRB04KT CAVOK
BECMG 2421/2423 22010KT
PROB40 2504/2506 4000 RA BR BKN005=

TAF EPSC 241130Z 2412/2512 28003KT 9999 SCT030
BECMG 2505/2507 22010KT 4000 RA BKN006 BKN012
TEMPO 2506/2509 2000 RASN BR BKN003=

TAF EPWA 240830Z 2409/2509 30010KT CAVOK
BECMG 2418/2420 VRB02KT=

TAF EPWA 241130Z 2412/2512 29010KT CAVOK
BECMG 2416/2418 VRB02KT
TEMPO 2510/2512 4500 SHRA BKN014CB=

TAF EPWR 240830Z 2409/2509 VRB02KT 9999 BKN040
BECMG 2503/2506 27012KT BKN012=

TAF EPWR 241130Z 2412/2512 VRB02KT 9999 BKN040
BECMG 2505/2507 27012KT BKN012
TEMPO 2507/2512 4000 RA BR BKN007=
Awiacja.imgw.pl jest pogodowym serwisem informacyjnym
Instytutu Meteorologii i Gospodarki Wodnej Państwowego Instytutu Badawczego.
Copyright IMGW PIB 2009-2011© Wszelkie prawa zastrzeżone.